Darstellungsparameter: Aktuell verwendete Einstellungen:
Skalierung der Graphiken ... ?
xyx+y,   Skalierungsfaktor:      Skalierung: Modus: x, Faktor: 1
Darstellungszeitraum ... ?
Vom - - bis: - -   Zeitraum: 29.02.2020 - 28.02.2021
Min/Max/Avg-Anzeige ... ?
Zeige MMA aktuell
Zeige MMA Monat
Zeige MMA alles
Zeige --A aktuell
Zeige --A Monat
Zeige --A alles
Keine MMA-Anzeige
MMA:
Keine MMA-Graphiken
MMA-Basis: 29.02.2020 - 28.02.2021
Quicknavigation für Darstellung... ?
Tage:      1T, 2T, 3T, 5T -1T -2T -3T -5T +1T +2T +3T +5T
Wochen: 1W, 2W, 3W -1W -2W -3W +1W +2W +3W
Monate: 1M, 3M, 6M -1M -3M -6M +1M +3M +6M
Jahre:    1J, 3J, 5J, 10J -1J -3J -5J -10J +1J +3J +5J +10J
Nutze für die Darstellung ... ?
Originaldaten oder ...
Mittelwerte Minima Maxima auf...
Stundenbasis Tagesbasis Wochenbasis
Monatsbasis Jahresbasis      Datenbasis: Mittelwerte auf Tagesbasis
Darstellen als:
Statistik (Auto) Statistik J:M      Darstellung:
Zur Graphik,    zurück zur Übersicht aller Sensoren.
 
Tabellarische Datenbersicht: ?
 
Sensor: Nr:Datum:Temp:Feuchte:Taupunkt:
Aussen-T/F 1 29-02-2020 00:00:00 8.92083 C 83.1944 % 6.23 C
2 01-03-2020 00:00:00 7.55313 C 83.2500 % 4.9 C
3 02-03-2020 00:00:00 6.27882 C 88.9965 % 4.6 C
4 03-03-2020 00:00:00 4.69236 C 88.6910 % 2.99 C
5 04-03-2020 00:00:00 5.49583 C 85.8333 % 3.32 C
6 05-03-2020 00:00:00 6.08229 C 93.0486 % 5.05 C
7 06-03-2020 00:00:00 6.29896 C 90.4271 % 4.85 C
8 07-03-2020 00:00:00 6.57396 C 78.9375 % 3.19 C
9 08-03-2020 00:00:00 9.63993 C 76.9618 % 5.8 C
10 09-03-2020 00:00:00 7.99514 C 81.5208 % 5.03 C
11 10-03-2020 00:00:00 9.51076 C 90.5833 % 8.05 C
12 11-03-2020 00:00:00 14.09028 C 86.0660 % 11.8 C
13 12-03-2020 00:00:00 11.24514 C 72.6007 % 6.51 C
14 13-03-2020 00:00:00 7.37569 C 76.2951 % 3.49 C
15 14-03-2020 00:00:00 6.05799 C 83.2604 % 3.44 C
16 15-03-2020 00:00:00 8.92639 C 74.2326 % 4.6 C
17 16-03-2020 00:00:00 9.3 C 80.2431 % 6.08 C
18 17-03-2020 00:00:00 11.38021 C 79.9722 % 8.05 C
19 18-03-2020 00:00:00 9.96493 C 82.5590 % 7.14 C
20 19-03-2020 00:00:00 12.13646 C 76.1042 % 8.06 C
21 20-03-2020 00:00:00 10.33299 C 84.0660 % 7.76 C
22 21-03-2020 00:00:00 6.16667 C 76.4236 % 2.34 C
23 22-03-2020 00:00:00 4.50243 C 57.8438 % -3.06 C
24 23-03-2020 00:00:00 2.99688 C 55.3889 % -5.05 C
25 24-03-2020 00:00:00 2.86181 C 56.4375 % -4.93 C
Sensor: Nr:Datum:Temp:Feuchte:Taupunkt:
Aussen-T/F 26 25-03-2020 00:00:00 3.75208 C 52.7257 % -4.99 C
27 26-03-2020 00:00:00 5.07118 C 57.3819 % -2.64 C
28 27-03-2020 00:00:00 7.93715 C 66.7500 % 2.15 C
29 28-03-2020 00:00:00 9.59861 C 66.6528 % 3.71 C
30 29-03-2020 00:00:00 5.44891 C 69.6413 % 0.36 C
31 30-03-2020 00:00:00 2.775 C 64.1319 % -3.31 C
32 31-03-2020 00:00:00 5.47118 C 66.1771 % -0.32 C
33 01-04-2020 00:00:00 3.8184 C 62.2569 % -2.72 C
34 02-04-2020 00:00:00 5.06042 C 67.9931 % -0.35 C
35 03-04-2020 00:00:00 8.20382 C 67.0382 % 2.46 C
36 04-04-2020 00:00:00 6.78958 C 68.9722 % 1.51 C
37 05-04-2020 00:00:00 9.49479 C 65.0729 % 3.27 C
38 06-04-2020 00:00:00 12.0434 C 60.3299 % 4.61 C
39 07-04-2020 00:00:00 13.80521 C 67.0417 % 7.8 C
40 08-04-2020 00:00:00 14.48472 C 65.0764 % 8.01 C
41 09-04-2020 00:00:00 15.29167 C 62.6840 % 8.22 C
42 10-04-2020 00:00:00 14.13646 C 66.3542 % 7.96 C
43 11-04-2020 00:00:00 14.06563 C 57.0417 % 5.7 C
44 12-04-2020 00:00:00 15.15174 C 60.2361 % 7.51 C
45 13-04-2020 00:00:00 9.40139 C 69.2118 % 4.05 C
46 14-04-2020 00:00:00 6.11181 C 64.0868 % -0.16 C
47 15-04-2020 00:00:00 8.67361 C 64.9514 % 2.46 C
48 16-04-2020 00:00:00 12.83299 C 63.9514 % 6.19 C
49 17-04-2020 00:00:00 15.23854 C 69.5278 % 9.71 C
50 18-04-2020 00:00:00 14.52083 C 78.8333 % 10.89 C
Sensor: Nr:Datum:Temp:Feuchte:Taupunkt:
Aussen-T/F 51 19-04-2020 00:00:00 13.06597 C 78.2396 % 9.37 C
52 20-04-2020 00:00:00 12.5066 C 50.4653 % 2.51 C
53 21-04-2020 00:00:00 13.59583 C 47.9965 % 2.81 C
54 22-04-2020 00:00:00 14.35 C 50.4549 % 4.2 C
55 23-04-2020 00:00:00 14.16042 C 57.7604 % 5.97 C
56 24-04-2020 00:00:00 13.96285 C 61.8542 % 6.77 C
57 25-04-2020 00:00:00 12.06389 C 62.5347 % 5.14 C
58 26-04-2020 00:00:00 11.44375 C 66.4514 % 5.42 C
59 27-04-2020 00:00:00 12.89201 C 66.5382 % 6.82 C
60 28-04-2020 00:00:00 12.69306 C 86.7639 % 10.55 C
61 29-04-2020 00:00:00 14.31979 C 76.7049 % 10.29 C
62 30-04-2020 00:00:00 12.21632 C 83.3299 % 9.48 C
63 01-05-2020 00:00:00 10.57674 C 86.4444 % 8.41 C
64 02-05-2020 00:00:00 9.93542 C 83.8403 % 7.33 C
65 03-05-2020 00:00:00 10.39028 C 77.2500 % 6.59 C
66 04-05-2020 00:00:00 11.82361 C 83.7986 % 9.18 C
67 05-05-2020 00:00:00 10.30833 C 68.8333 % 4.84 C
68 06-05-2020 00:00:00 10.34687 C 62.9375 % 3.61 C
69 07-05-2020 00:00:00 12.36771 C 67.0278 % 6.43 C
70 08-05-2020 00:00:00 15.11146 C 64.7535 % 8.53 C
71 09-05-2020 00:00:00 15.97396 C 71.7986 % 10.89 C
72 10-05-2020 00:00:00 15.5441 C 87.0729 % 13.4 C
73 11-05-2020 00:00:00 9.41007 C 72.6944 % 4.76 C
74 12-05-2020 00:00:00 7.67674 C 65.0833 % 1.54 C
75 13-05-2020 00:00:00 8.92604 C 67.5104 % 3.25 C
Sensor: Nr:Datum:Temp:Feuchte:Taupunkt:
Aussen-T/F 76 14-05-2020 00:00:00 9.71389 C 66.2535 % 3.73 C
77 15-05-2020 00:00:00 10.43264 C 60.9375 % 3.23 C
78 16-05-2020 00:00:00 11.17396 C 64.1319 % 4.66 C
79 17-05-2020 00:00:00 13.11528 C 63.3750 % 6.33 C
80 18-05-2020 00:00:00 15.67292 C 64.9167 % 9.1 C
81 19-05-2020 00:00:00 16.60729 C 65.8542 % 10.2 C
82 20-05-2020 00:00:00 17.77917 C 71.9375 % 12.65 C
83 21-05-2020 00:00:00 19.01562 C 69.2535 % 13.26 C
84 22-05-2020 00:00:00 19.97639 C 75.2535 % 15.46 C
85 23-05-2020 00:00:00 13.69236 C 87.6181 % 11.68 C
86 24-05-2020 00:00:00 13.58542 C 74.5799 % 9.16 C
87 25-05-2020 00:00:00 15.93854 C 74.9514 % 11.51 C
88 26-05-2020 00:00:00 14.58437 C 71.8056 % 9.56 C
89 27-05-2020 00:00:00 16.48611 C 64.8958 % 9.87 C
90 28-05-2020 00:00:00 17.49132 C 54.2049 % 8.15 C
91 29-05-2020 00:00:00 15.20764 C 57.9097 % 6.98 C
92 30-05-2020 00:00:00 15.6941 C 55.5278 % 6.83 C
93 31-05-2020 00:00:00 15.11597 C 60.7847 % 7.61 C
94 01-06-2020 00:00:00 17.87257 C 60.3785 % 10.1 C
95 02-06-2020 00:00:00 19.76701 C 57.8264 % 11.23 C
96 03-06-2020 00:00:00 19.96667 C 60.3333 % 12.06 C
97 04-06-2020 00:00:00 14.67257 C 91.4792 % 13.3 C
98 05-06-2020 00:00:00 11.51111 C 85.9722 % 9.25 C
99 06-06-2020 00:00:00 12.4684 C 81.1806 % 9.33 C
100 07-06-2020 00:00:00 13.39861 C 74.3194 % 8.93 C
Sensor: Nr:Datum:Temp:Feuchte:Taupunkt:
Aussen-T/F 101 08-06-2020 00:00:00 14.75035 C 72.9375 % 9.95 C
102 09-06-2020 00:00:00 13.99236 C 88.3715 % 12.1 C
103 10-06-2020 00:00:00 15.4 C 85.7326 % 13.02 C
104 11-06-2020 00:00:00 15.74271 C 85.5799 % 13.33 C
105 12-06-2020 00:00:00 19.42083 C 73.5938 % 14.58 C
106 13-06-2020 00:00:00 20.95799 C 70.8958 % 15.48 C
107 14-06-2020 00:00:00 18.87917 C 80.4340 % 15.44 C
108 15-06-2020 00:00:00 18.60291 C 80.5345 % 15.19 C
109 16-06-2020 00:00:00 18.0434 C 88.9236 % 16.19 C
110 17-06-2020 00:00:00 17.45903 C 89.6771 % 15.75 C
111 18-06-2020 00:00:00 18.51528 C 77.4028 % 14.49 C
112 19-06-2020 00:00:00 16.72674 C 84.4549 % 14.09 C
113 20-06-2020 00:00:00 16.94271 C 84.7535 % 14.36 C
114 21-06-2020 00:00:00 19.05278 C 74.7396 % 14.47 C
115 22-06-2020 00:00:00 18.83785 C 72.4236 % 13.77 C
116 23-06-2020 00:00:00 19.59583 C 68.6840 % 13.69 C
117 24-06-2020 00:00:00 21.22153 C 60.2153 % 13.21 C
118 25-06-2020 00:00:00 21.70278 C 67.7535 % 15.48 C
119 26-06-2020 00:00:00 21.67743 C 70.8264 % 16.15 C
120 27-06-2020 00:00:00 22.68785 C 72.4479 % 17.48 C
121 28-06-2020 00:00:00 19.86979 C 72.4236 % 14.77 C
122 29-06-2020 00:00:00 17.69792 C 71.6701 % 12.52 C
123 30-06-2020 00:00:00 16.88194 C 71.2639 % 11.65 C
124 01-07-2020 00:00:00 21.29896 C 71.3889 % 15.91 C
125 02-07-2020 00:00:00 18.73125 C 81.7639 % 15.55 C
Sensor: Nr:Datum:Temp:Feuchte:Taupunkt:
Aussen-T/F 126 03-07-2020 00:00:00 17.73958 C 72.1597 % 12.66 C
127 04-07-2020 00:00:00 19.09826 C 68.4722 % 13.16 C
128 05-07-2020 00:00:00 22.80243 C 71.1076 % 17.29 C
129 06-07-2020 00:00:00 16.79653 C 65.8646 % 10.38 C
130 07-07-2020 00:00:00 16.09792 C 67.7292 % 10.14 C
131 08-07-2020 00:00:00 15.87639 C 86.0139 % 13.54 C
132 09-07-2020 00:00:00 21.61424 C 74.6667 % 16.92 C
133 10-07-2020 00:00:00 18.63368 C 78.6215 % 14.85 C
134 11-07-2020 00:00:00 16.57431 C 67.3646 % 10.51 C
135 12-07-2020 00:00:00 16.85382 C 66.0139 % 10.47 C
136 13-07-2020 00:00:00 19.08542 C 59.6354 % 11.05 C
137 14-07-2020 00:00:00 18.66215 C 67.1389 % 12.45 C
138 15-07-2020 00:00:00 17.55208 C 72.7569 % 12.61 C
139 16-07-2020 00:00:00 16.0875 C 88.8715 % 14.25 C
140 17-07-2020 00:00:00 18.58611 C 80.2222 % 15.11 C
141 18-07-2020 00:00:00 19.51944 C 74.3264 % 14.83 C
142 19-07-2020 00:00:00 22.30451 C 63.0590 % 14.94 C
143 20-07-2020 00:00:00 19.42708 C 71.6215 % 14.17 C
144 21-07-2020 00:00:00 17.64722 C 62.2118 % 10.34 C
145 22-07-2020 00:00:00 17.13264 C 62.9931 % 10.04 C
146 23-07-2020 00:00:00 18.84618 C 60.0208 % 10.93 C
147 24-07-2020 00:00:00 21.21007 C 59.2118 % 12.94 C
148 25-07-2020 00:00:00 21.01562 C 67.9618 % 14.88 C
149 26-07-2020 00:00:00 20.87674 C 70.5660 % 15.33 C
150 27-07-2020 00:00:00 21.66215 C 63.9306 % 14.54 C
Sensor: Nr:Datum:Temp:Feuchte:Taupunkt:
Aussen-T/F 151 28-07-2020 00:00:00 22.91424 C 54.3299 % 13.21 C
152 29-07-2020 00:00:00 18.94583 C 61.6007 % 11.41 C
153 30-07-2020 00:00:00 20.4309 C 59.1424 % 12.19 C
154 31-07-2020 00:00:00 24.16007 C 52.9340 % 13.96 C
155 01-08-2020 00:00:00 21.98437 C 78.4896 % 18.07 C
156 02-08-2020 00:00:00 21.28472 C 73.8993 % 16.44 C
157 03-08-2020 00:00:00 18.1684 C 72.7361 % 13.2 C
158 04-08-2020 00:00:00 19.15486 C 64.7847 % 12.37 C
159 05-08-2020 00:00:00 19.44549 C 61.2292 % 11.79 C
160 06-08-2020 00:00:00 21.8184 C 59.4549 % 13.57 C
161 07-08-2020 00:00:00 23.97535 C 59.4826 % 15.6 C
162 08-08-2020 00:00:00 26.13125 C 58.1875 % 17.27 C
163 09-08-2020 00:00:00 24.35937 C 66.6146 % 17.74 C
164 10-08-2020 00:00:00 25.68472 C 68.1910 % 19.38 C
165 11-08-2020 00:00:00 25.77396 C 68.1285 % 19.45 C
166 12-08-2020 00:00:00 23.65799 C 82.5382 % 20.51 C
167 13-08-2020 00:00:00 23.34201 C 82.8333 % 20.26 C
168 14-08-2020 00:00:00 23.16285 C 77.1215 % 18.93 C
169 15-08-2020 00:00:00 21.83368 C 84.6111 % 19.12 C
170 16-08-2020 00:00:00 22.52535 C 79.9028 % 18.88 C
171 17-08-2020 00:00:00 21.08056 C 81.9514 % 17.88 C
172 18-08-2020 00:00:00 19.08924 C 82.0139 % 15.95 C
173 19-08-2020 00:00:00 19.13125 C 82.7951 % 16.14 C
174 20-08-2020 00:00:00 23.86042 C 77.6875 % 19.72 C
175 21-08-2020 00:00:00 25.27743 C 71.3264 % 19.71 C
Sensor: Nr:Datum:Temp:Feuchte:Taupunkt:
Aussen-T/F 176 22-08-2020 00:00:00 22.45625 C 67.1285 % 16.06 C
177 23-08-2020 00:00:00 19.15764 C 69.8229 % 13.52 C
178 24-08-2020 00:00:00 18.23437 C 71.3472 % 12.97 C
179 25-08-2020 00:00:00 19.07917 C 71.9306 % 13.9 C
180 26-08-2020 00:00:00 20.74132 C 58.6875 % 12.36 C
181 27-08-2020 00:00:00 18.39271 C 69.0382 % 12.62 C
182 28-08-2020 00:00:00 17.86667 C 78.0104 % 13.98 C
183 29-08-2020 00:00:00 16.24479 C 77.3403 % 12.28 C
184 30-08-2020 00:00:00 15.77153 C 80.3125 % 12.39 C
185 31-08-2020 00:00:00 15.63437 C 88.7847 % 13.79 C
186 01-09-2020 00:00:00 15.08889 C 88.1806 % 13.15 C
187 02-09-2020 00:00:00 15.65833 C 79.2083 % 12.07 C
188 03-09-2020 00:00:00 14.23542 C 87.9375 % 12.27 C
189 04-09-2020 00:00:00 20.30278 C 80.3993 % 16.82 C
190 05-09-2020 00:00:00 16.89688 C 78.7049 % 13.18 C
191 06-09-2020 00:00:00 13.28021 C 77.0208 % 9.34 C
192 07-09-2020 00:00:00 14.01493 C 75.7222 % 9.8 C
193 08-09-2020 00:00:00 16.29826 C 73.6458 % 11.59 C
194 09-09-2020 00:00:00 18.26667 C 81.2639 % 15 C
195 10-09-2020 00:00:00 17.81319 C 73.1389 % 12.94 C
196 11-09-2020 00:00:00 15.1066 C 75.7639 % 10.86 C
197 12-09-2020 00:00:00 17.20625 C 75.7535 % 12.89 C
198 13-09-2020 00:00:00 17.20486 C 74.9549 % 12.73 C
199 14-09-2020 00:00:00 18.81806 C 73.5069 % 13.98 C
200 15-09-2020 00:00:00 20.38194 C 70.7118 % 14.89 C
Sensor: Nr:Datum:Temp:Feuchte:Taupunkt:
Aussen-T/F 201 16-09-2020 00:00:00 20.67049 C 74.0139 % 15.87 C
202 17-09-2020 00:00:00 17.93958 C 64.1181 % 11.06 C
203 18-09-2020 00:00:00 15.74687 C 65.9757 % 9.41 C
204 19-09-2020 00:00:00 15.73333 C 62.4097 % 8.58 C
205 20-09-2020 00:00:00 14.83056 C 69.2257 % 9.25 C
206 21-09-2020 00:00:00 14.75174 C 69.8542 % 9.31 C
207 22-09-2020 00:00:00 16.10521 C 69.6840 % 10.57 C
208 23-09-2020 00:00:00 17.57639 C 68.9479 % 11.82 C
209 24-09-2020 00:00:00 16.23021 C 76.9653 % 12.19 C
210 25-09-2020 00:00:00 12.16979 C 82.8542 % 9.35 C
211 26-09-2020 00:00:00 10.52674 C 88.2188 % 8.66 C
212 27-09-2020 00:00:00 11.00694 C 91.8576 % 9.74 C
213 28-09-2020 00:00:00 11.72882 C 87.0243 % 9.64 C
214 29-09-2020 00:00:00 12.13333 C 94.1250 % 11.22 C
215 30-09-2020 00:00:00 14.10799 C 92.7813 % 12.96 C
216 01-10-2020 00:00:00 12.57465 C 93.1042 % 11.49 C
217 02-10-2020 00:00:00 13.41493 C 88.6597 % 11.58 C
218 03-10-2020 00:00:00 13.37049 C 88.4410 % 11.5 C
219 04-10-2020 00:00:00 11.79861 C 86.3889 % 9.6 C
220 05-10-2020 00:00:00 11.07257 C 91.3021 % 9.71 C
221 06-10-2020 00:00:00 13.11389 C 88.5590 % 11.27 C
222 07-10-2020 00:00:00 13.19444 C 82.1181 % 10.21 C
223 08-10-2020 00:00:00 13.25243 C 88.7188 % 11.43 C
224 09-10-2020 00:00:00 12.99063 C 94.7847 % 12.17 C
225 10-10-2020 00:00:00 9.91979 C 86.5556 % 7.79 C
Sensor: Nr:Datum:Temp:Feuchte:Taupunkt:
Aussen-T/F 226 11-10-2020 00:00:00 10.06944 C 83.8299 % 7.46 C
227 12-10-2020 00:00:00 9.40799 C 91.4722 % 8.09 C
228 13-10-2020 00:00:00 7.37361 C 92.5382 % 6.25 C
229 14-10-2020 00:00:00 7.7559 C 89.7222 % 6.18 C
230 15-10-2020 00:00:00 9.09444 C 92.2639 % 7.91 C
231 16-10-2020 00:00:00 9.26007 C 92.3021 % 8.08 C
232 17-10-2020 00:00:00 6.19618 C 93.4236 % 5.22 C
233 18-10-2020 00:00:00 8.18958 C 90.5556 % 6.74 C
234 19-10-2020 00:00:00 8.62604 C 91.6528 % 7.35 C
235 20-10-2020 00:00:00 8.95714 C 93.6516 % 7.99 C
236 21-10-2020 00:00:00 15.08611 C 82.2326 % 12.08 C
237 22-10-2020 00:00:00 16.18681 C 86.0660 % 13.86 C
238 23-10-2020 00:00:00 15.0691 C 92.6979 % 13.9 C
239 24-10-2020 00:00:00 13.40799 C 87.0243 % 11.29 C
240 25-10-2020 00:00:00 13.16458 C 86.2917 % 10.93 C
241 26-10-2020 00:00:00 10.20313 C 88.5799 % 8.4 C
242 27-10-2020 00:00:00 10.44514 C 83.0590 % 7.7 C
243 28-10-2020 00:00:00 12.59861 C 83.4792 % 9.88 C
244 29-10-2020 00:00:00 10.65347 C 91.8785 % 9.39 C
245 30-10-2020 00:00:00 13.81667 C 90.6146 % 12.31 C
246 31-10-2020 00:00:00 13.1434 C 87.1944 % 11.06 C
247 01-11-2020 00:00:00 15.18715 C 91.6944 % 13.85 C
248 02-11-2020 00:00:00 18.53125 C 80.7361 % 15.16 C
249 03-11-2020 00:00:00 10.3559 C 85.7188 % 8.07 C
250 04-11-2020 00:00:00 4.54444 C 95.1944 % 3.84 C
Sensor: Nr:Datum:Temp:Feuchte:Taupunkt:
Aussen-T/F 251 05-11-2020 00:00:00 3.1178 C 96.7966 % 2.66 C
252 06-11-2020 00:00:00 3.23681 C 97.3160 % 2.85 C
253 07-11-2020 00:00:00 4.20285 C 95.8577 % 3.6 C
254 08-11-2020 00:00:00 7.08472 C 94.8160 % 6.31 C
255 09-11-2020 00:00:00 9.85972 C 95.9306 % 9.24 C
256 10-11-2020 00:00:00 7.08333 C 97.0729 % 6.65 C
257 11-11-2020 00:00:00 9.01875 C 94.5069 % 8.19 C
258 12-11-2020 00:00:00 9.26458 C 90.3681 % 7.77 C
259 13-11-2020 00:00:00 6.6191 C 95.8160 % 6 C
260 14-11-2020 00:00:00 10.4625 C 92.9861 % 9.38 C
261 15-11-2020 00:00:00 13.18819 C 86.4896 % 10.99 C
262 16-11-2020 00:00:00 10.81736 C 86.1146 % 8.59 C
263 17-11-2020 00:00:00 11.47778 C 84.8889 % 9.03 C
264 18-11-2020 00:00:00 9.90625 C 89.6111 % 8.28 C
265 19-11-2020 00:00:00 8.99688 C 88.4826 % 7.2 C
266 20-11-2020 00:00:00 4.04167 C 92.6076 % 2.96 C
267 21-11-2020 00:00:00 3.39688 C 89.5938 % 1.85 C
268 22-11-2020 00:00:00 7.66701 C 84.5625 % 5.24 C
269 23-11-2020 00:00:00 7.74201 C 90.7951 % 6.34 C
270 24-11-2020 00:00:00 6.32917 C 91.8472 % 5.1 C
271 25-11-2020 00:00:00 4.53125 C 93.4340 % 3.57 C
272 26-11-2020 00:00:00 3.39653 C 94.7465 % 2.64 C
273 27-11-2020 00:00:00 3.65278 C 93.7847 % 2.75 C
274 28-11-2020 00:00:00 3.30521 C 92.3438 % 2.19 C
275 29-11-2020 00:00:00 0.89479 C 85.6875 % -1.22 C
Sensor: Nr:Datum:Temp:Feuchte:Taupunkt:
Aussen-T/F 276 30-11-2020 00:00:00 -1.56215 C 92.4271 % -2.63 C
277 01-12-2020 00:00:00 2.81111 C 95.7917 % 2.21 C
278 02-12-2020 00:00:00 2.83889 C 95.7743 % 2.23 C
279 03-12-2020 00:00:00 3.59132 C 91.9965 % 2.42 C
280 04-12-2020 00:00:00 4.57361 C 94.0243 % 3.7 C
281 05-12-2020 00:00:00 4.12778 C 95.7500 % 3.51 C
282 06-12-2020 00:00:00 3.92917 C 96.3646 % 3.4 C
283 07-12-2020 00:00:00 4.18854 C 95.0451 % 3.47 C
284 08-12-2020 00:00:00 3.36667 C 92.5208 % 2.27 C
285 09-12-2020 00:00:00 2.17326 C 92.4653 % 1.08 C
286 10-12-2020 00:00:00 0.38125 C 93.3889 % -0.56 C
287 11-12-2020 00:00:00 2.71597 C 90.6250 % 1.34 C
288 12-12-2020 00:00:00 6.01111 C 94.8854 % 5.26 C
289 13-12-2020 00:00:00 5.90799 C 94.8229 % 5.14 C
290 14-12-2020 00:00:00 6.08576 C 90.4028 % 4.64 C
291 15-12-2020 00:00:00 7.82014 C 95.9097 % 7.21 C
292 16-12-2020 00:00:00 7.48125 C 97.1771 % 7.06 C
293 17-12-2020 00:00:00 7.2309 C 95.1285 % 6.5 C
294 18-12-2020 00:00:00 4.31771 C 97.2153 % 3.92 C
295 19-12-2020 00:00:00 6.22292 C 94.9757 % 5.48 C
296 20-12-2020 00:00:00 7.98889 C 94.0486 % 7.09 C
297 21-12-2020 00:00:00 7.12639 C 95.1944 % 6.41 C
298 22-12-2020 00:00:00 13.11875 C 92.6493 % 11.96 C
299 23-12-2020 00:00:00 11.78889 C 96.6910 % 11.28 C
300 24-12-2020 00:00:00 6.83681 C 90.2014 % 5.35 C
Sensor: Nr:Datum:Temp:Feuchte:Taupunkt:
Aussen-T/F 301 25-12-2020 00:00:00 3.34653 C 91.5243 % 2.1 C
302 26-12-2020 00:00:00 2.93368 C 89.6736 % 1.41 C
303 27-12-2020 00:00:00 3.76528 C 88.5799 % 2.06 C
304 28-12-2020 00:00:00 3.67431 C 95.7326 % 3.06 C
305 29-12-2020 00:00:00 2.99375 C 94.1042 % 2.14 C
306 30-12-2020 00:00:00 3.90938 C 91.9132 % 2.72 C
307 31-12-2020 00:00:00 2.97986 C 93.1389 % 1.98 C
308 01-01-2021 00:00:00 2.09757 C 96.4479 % 1.59 C
309 02-01-2021 00:00:00 1.36771 C 96.0625 % 0.81 C
310 03-01-2021 00:00:00 2.60903 C 90.5903 % 1.23 C
311 04-01-2021 00:00:00 1.67326 C 96.3229 % 1.15 C
312 05-01-2021 00:00:00 2.52431 C 95.1007 % 1.82 C
313 06-01-2021 00:00:00 2.73333 C 94.0347 % 1.87 C
314 07-01-2021 00:00:00 2.03368 C 92.1146 % 0.89 C
315 08-01-2021 00:00:00 1.95556 C 95.0903 % 1.25 C
316 09-01-2021 00:00:00 1.34271 C 94.1458 % 0.51 C
317 10-01-2021 00:00:00 0.68472 C 92.7951 % -0.34 C
318 11-01-2021 00:00:00 -0.44062 C 90.1597 % -1.85 C
319 12-01-2021 00:00:00 3.87847 C 91.0313 % 2.55 C
320 13-01-2021 00:00:00 2.46875 C 88.9097 % 0.83 C
321 14-01-2021 00:00:00 2.00556 C 85.9583 % -0.09 C
322 15-01-2021 00:00:00 0.32431 C 86.9410 % -1.59 C
323 16-01-2021 00:00:00 0.42812 C 82.8333 % -2.14 C
324 17-01-2021 00:00:00 0.51181 C 95.1458 % -0.17 C
325 18-01-2021 00:00:00 3.81701 C 91.5278 % 2.57 C
Sensor: Nr:Datum:Temp:Feuchte:Taupunkt:
Aussen-T/F 326 19-01-2021 00:00:00 5.13611 C 84.7049 % 2.78 C
327 20-01-2021 00:00:00 6.33056 C 81.7222 % 3.44 C
328 21-01-2021 00:00:00 8.93368 C 81.0833 % 5.87 C
329 22-01-2021 00:00:00 5.72396 C 91.8160 % 4.5 C
330 23-01-2021 00:00:00 4.06493 C 92.5625 % 2.97 C
331 24-01-2021 00:00:00 2.12708 C 91.6111 % 0.91 C
332 25-01-2021 00:00:00 1.33611 C 93.1111 % 0.35 C
333 26-01-2021 00:00:00 3.28854 C 84.4479 % 0.92 C
334 27-01-2021 00:00:00 2.29201 C 92.8056 % 1.25 C
335 28-01-2021 00:00:00 7.12014 C 93.7431 % 6.18 C
336 29-01-2021 00:00:00 8.84861 C 89.8264 % 7.27 C
337 30-01-2021 00:00:00 4.08715 C 92.8472 % 3.04 C
338 31-01-2021 00:00:00 1.01563 C 91.4201 % -0.22 C
339 01-02-2021 00:00:00 3.89132 C 96.4167 % 3.37 C
340 02-02-2021 00:00:00 7.66319 C 94.6736 % 6.86 C
341 03-02-2021 00:00:00 9.71944 C 94.1632 % 8.83 C
342 04-02-2021 00:00:00 6.63229 C 89.1111 % 4.97 C
343 05-02-2021 00:00:00 6.42708 C 96.0972 % 5.85 C
344 06-02-2021 00:00:00 5.10799 C 96.0243 % 4.53 C
345 07-02-2021 00:00:00 1.10556 C 95.0486 % 0.4 C
346 08-02-2021 00:00:00 -3.50382 C 87.8264 % -5.23 C
347 09-02-2021 00:00:00 -4.71007 C 79.9063 % -7.64 C
348 10-02-2021 00:00:00 -5.63507 C 79.0556 % -8.68 C
349 11-02-2021 00:00:00 -3.28646 C 83.7778 % -5.63 C
350 12-02-2021 00:00:00 -4.72708 C 79.4896 % -7.72 C
Sensor: Nr:Datum:Temp:Feuchte:Taupunkt:
Aussen-T/F 351 13-02-2021 00:00:00 -5.43715 C 78.8542 % -8.52 C
352 14-02-2021 00:00:00 -3.78299 C 79.8403 % -6.75 C
353 15-02-2021 00:00:00 0.83194 C 78.6146 % -2.45 C
354 16-02-2021 00:00:00 5.64757 C 94.2188 % 4.79 C
355 17-02-2021 00:00:00 7.15451 C 90.5764 % 5.72 C
356 18-02-2021 00:00:00 4.16806 C 93.0208 % 3.14 C
357 19-02-2021 00:00:00 6.25486 C 88.6007 % 4.52 C
358 20-02-2021 00:00:00 6.97083 C 87.9028 % 5.11 C
359 21-02-2021 00:00:00 7.73056 C 82.3472 % 4.92 C
360 22-02-2021 00:00:00 6.65069 C 87.7674 % 4.77 C
361 23-02-2021 00:00:00 11.51076 C 82.1528 % 8.58 C
362 24-02-2021 00:00:00 10.01771 C 87.0972 % 7.97 C
363 25-02-2021 00:00:00 9.55417 C 80.9688 % 6.45 C
364 26-02-2021 00:00:00 7.00972 C 87.8889 % 5.14 C
365 27-02-2021 00:00:00 4.3559 C 86.7604 % 2.35 C
366 28-02-2021 00:00:00 5.84236 C 76.1979 % 1.98 C

Maximal/Minimal-Werte vom 29.02.2020 - 28.02.2021

Sensor Min Max Avg
Temp
(Aussen-T/F)
-9.6 °C
14-02-2021  07:20:00
38.2 °C
08-08-2020  17:10:00
11.46 °C
Feuchte
(Aussen-T/F)
21 %
31-07-2020  17:15:00
99 %
19-12-2020  13:40:00
79.8 %
Taupunkt
(Aussen-T/F)
-8.68 C
10-02-2021  00:00:00
20.51 C
12-08-2020  00:00:00
7.85 C

Die Daten stammen von einer Davis Vantage Pro 2 Wetter-Station und werden unter Linux mit der Software wview2wettercgi und aufbereitet. Alle Angaben erfolgen ohne Gewähr für ihre Vollständigkeit oder Richtigkeit.
Kontakt: Rainer Krienke krienke@uni-koblenz.de . Meine Webseiten an der Uni Koblenz oder privat.
Version: $Revision: 0.78 $